Time;durP1;ratioP1;P1;durP2;ratioP2;P2;SDS_P1;SDS_P2;PMS_P1;PMS_P2;Temp;Humidity;BMP_temperature;BMP_pressure;BME280_temperature;BME280_humidity;BME280_pressure;Samples;Min_cycle;Max_cycle;Signal;HPM_P1;HPM_P2
2023/11/10 00:00:10;;;;;;;11.18;4.70;;;;;;;4.04;70.90;94272.75;5065255;28;20087;-77
2023/11/10 00:02:37;;;;;;;11.10;4.90;;;;;;;4.02;71.33;94275.63;5065157;28;20083;-77
2023/11/10 00:05:03;;;;;;;14.30;5.70;;;;;;;4.01;71.53;94266.16;5065225;28;20025;-77
2023/11/10 00:07:29;;;;;;;12.65;7.03;;;;;;;4.01;71.57;94263.50;5065412;28;20032;-77
2023/11/10 00:09:54;;;;;;;10.75;5.35;;;;;;;3.98;71.90;94267.44;5065246;28;20024;-77
2023/11/10 00:12:20;;;;;;;14.13;5.93;;;;;;;3.94;71.97;94270.88;5065004;28;20223;-77
2023/11/10 00:14:48;;;;;;;17.25;6.53;;;;;;;3.92;72.31;94275.63;5064854;28;20275;-77
2023/11/10 00:17:14;;;;;;;14.10;6.28;;;;;;;3.88;72.18;94261.38;5064712;28;20294;-77
2023/11/10 00:19:44;;;;;;;20.35;5.72;;;;;;;3.90;72.33;94261.91;5064905;28;20021;-78
2023/11/10 00:22:10;;;;;;;11.30;5.38;;;;;;;3.89;72.30;94257.66;5064757;28;20019;-78
2023/11/10 00:24:45;;;;;;;9.60;4.93;;;;;;;3.91;72.40;94258.19;5063772;28;20227;-78
2023/11/10 00:27:13;;;;;;;14.63;5.60;;;;;;;3.87;72.73;94265.03;5064736;28;20059;-78
2023/11/10 00:29:47;;;;;;;8.85;5.00;;;;;;;3.84;72.81;94268.22;5064531;28;20088;-77
2023/11/10 00:32:13;;;;;;;11.18;5.97;;;;;;;3.76;73.06;94262.38;5064720;28;20048;-78
2023/11/10 00:34:39;;;;;;;11.75;4.70;;;;;;;3.73;73.19;94267.41;5063489;28;20095;-78
2023/11/10 00:37:05;;;;;;;8.48;4.82;;;;;;;3.73;73.42;94264.75;5063229;28;20095;-77
2023/11/10 00:39:31;;;;;;;11.43;5.45;;;;;;;3.74;73.43;94253.94;5064721;28;20299;-78
2023/11/10 00:41:57;;;;;;;9.38;4.85;;;;;;;3.75;73.23;94250.25;5063278;28;20095;-78
2023/11/10 00:44:23;;;;;;;17.13;6.07;;;;;;;3.75;73.30;94263.44;5064379;28;20094;-78
2023/11/10 00:46:49;;;;;;;15.75;6.18;;;;;;;3.74;73.34;94256.56;5064510;28;20255;-77
2023/11/10 00:49:16;;;;;;;12.80;5.78;;;;;;;3.73;73.09;94254.22;5064301;28;20311;-78
2023/11/10 00:51:41;;;;;;;13.13;6.63;;;;;;;3.72;73.46;94258.69;5064407;28;20031;-79
2023/11/10 00:54:07;;;;;;;10.98;5.32;;;;;;;3.68;73.24;94252.34;5064308;28;20021;-80
2023/11/10 00:56:33;;;;;;;11.35;5.75;;;;;;;3.66;73.34;94243.91;5063301;28;20021;-80
2023/11/10 00:59:03;;;;;;;12.88;5.05;;;;;;;3.66;73.35;94249.19;5064532;28;20052;-79
2023/11/10 01:01:28;;;;;;;7.90;4.45;;;;;;;3.63;73.77;94251.56;5063255;28;20070;-79
2023/11/10 01:03:54;;;;;;;10.07;5.50;;;;;;;3.62;73.69;94248.09;5064255;28;20021;-79
2023/11/10 01:06:21;;;;;;;11.80;5.57;;;;;;;3.61;73.81;94244.69;5064330;28;20084;-78
2023/11/10 01:08:47;;;;;;;11.75;5.38;;;;;;;3.59;73.84;94248.66;5064074;28;20016;-79
2023/11/10 01:11:12;;;;;;;10.20;4.63;;;;;;;3.60;74.07;94242.31;5096531;28;20021;-80
2023/11/10 01:13:38;;;;;;;10.60;4.90;;;;;;;3.60;73.88;94247.56;5096386;28;20028;-80
2023/11/10 01:16:04;;;;;;;9.25;4.25;;;;;;;3.56;74.16;94243.88;5062728;28;20073;-79
2023/11/10 01:18:31;;;;;;;16.50;5.85;;;;;;;3.58;74.24;94231.22;5063917;28;20220;-79
2023/11/10 01:20:57;;;;;;;10.63;4.85;;;;;;;3.60;74.28;94239.66;5063918;28;20231;-79
2023/11/10 01:23:23;;;;;;;12.00;6.45;;;;;;;3.59;74.49;94235.47;5063815;28;20017;-79
2023/11/10 01:25:48;;;;;;;13.10;6.13;;;;;;;3.63;74.50;94239.16;5063590;28;20131;-79
2023/11/10 01:28:14;;;;;;;13.73;5.82;;;;;;;3.61;74.59;94236.00;5061876;28;20221;-80
2023/11/10 01:30:39;;;;;;;11.63;5.95;;;;;;;3.64;74.83;94239.94;5095997;28;20055;-80
2023/11/10 01:33:07;;;;;;;14.73;5.88;;;;;;;3.62;74.81;94237.56;5063617;28;20025;-79
2023/11/10 01:35:34;;;;;;;13.40;5.95;;;;;;;3.64;74.87;94230.19;5062296;28;20071;-80
2023/11/10 01:37:59;;;;;;;11.10;5.63;;;;;;;3.63;74.90;94239.16;5063612;28;20091;-80
2023/11/10 01:40:25;;;;;;;20.38;6.28;;;;;;;3.65;74.94;94221.25;5063485;28;20020;-79
2023/11/10 01:42:50;;;;;;;13.20;5.82;;;;;;;3.65;74.94;94223.09;5063361;28;20017;-80
2023/11/10 01:45:17;;;;;;;12.35;5.28;;;;;;;3.67;74.74;94228.91;5095684;28;20215;-80
2023/11/10 01:47:45;;;;;;;10.35;5.55;;;;;;;3.69;74.70;94232.06;5063384;28;20048;-80
2023/11/10 01:50:11;;;;;;;11.30;5.35;;;;;;;3.70;74.68;94231.78;5095724;28;20062;-80
2023/11/10 01:52:38;;;;;;;10.10;5.20;;;;;;;3.71;74.74;94220.19;5063039;28;20096;-80
2023/11/10 01:55:05;;;;;;;9.93;4.80;;;;;;;3.68;74.79;94210.16;5063472;28;20035;-79
2023/11/10 01:57:31;;;;;;;7.82;3.38;;;;;;;3.63;74.97;94212.81;5063366;28;20021;-80
2023/11/10 01:59:59;;;;;;;12.35;4.97;;;;;;;3.66;74.93;94211.47;5063180;28;20032;-79
2023/11/10 02:02:25;;;;;;;11.45;4.85;;;;;;;3.69;74.92;94205.72;5063006;28;20021;-80
2023/11/10 02:04:50;;;;;;;12.00;5.70;;;;;;;3.70;74.98;94221.25;5063050;28;20099;-79
2023/11/10 02:07:16;;;;;;;12.55;6.78;;;;;;;3.72;74.47;94218.34;5063047;28;20044;-78
2023/11/10 02:09:42;;;;;;;12.20;6.07;;;;;;;3.74;74.73;94200.44;5062878;28;20307;-79
2023/11/10 02:12:08;;;;;;;14.30;6.68;;;;;;;3.78;74.55;94204.13;5063026;28;20219;-79
2023/11/10 02:14:35;;;;;;;11.25;5.60;;;;;;;3.79;74.36;94214.41;5063005;28;20027;-80
2023/11/10 02:17:01;;;;;;;9.02;5.60;;;;;;;3.82;74.46;94202.53;5062833;28;20044;-80
2023/11/10 02:19:27;;;;;;;9.93;5.47;;;;;;;3.84;74.54;94199.66;5062771;28;20028;-80
2023/11/10 02:21:52;;;;;;;8.48;5.35;;;;;;;3.87;74.69;94193.84;5062913;28;20025;-80
2023/11/10 02:24:21;;;;;;;11.82;5.22;;;;;;;3.89;74.79;94199.66;5062936;28;20368;-80
2023/11/10 02:26:46;;;;;;;11.18;4.60;;;;;;;3.87;75.02;94196.47;5062652;28;20024;-79
2023/11/10 02:29:11;;;;;;;8.82;5.03;;;;;;;3.88;74.92;94198.84;5062818;28;20100;-79
2023/11/10 02:31:37;;;;;;;10.38;4.50;;;;;;;3.91;74.82;94194.91;5061613;28;20021;-79
2023/11/10 02:34:03;;;;;;;11.68;4.30;;;;;;;3.90;74.91;94193.34;5062766;28;20218;-78
2023/11/10 02:36:29;;;;;;;8.02;3.90;;;;;;;3.92;74.93;94188.59;5061661;28;20039;-79
2023/11/10 02:38:54;;;;;;;7.80;4.28;;;;;;;3.93;74.15;94184.88;5062807;28;20104;-79
2023/11/10 02:41:20;;;;;;;11.50;5.55;;;;;;;3.92;74.52;94185.94;5064901;28;20025;-79
2023/11/10 02:43:45;;;;;;;9.07;5.18;;;;;;;3.89;74.63;94187.28;5066623;28;20024;-80
2023/11/10 02:46:10;;;;;;;14.23;6.00;;;;;;;3.87;74.41;94185.94;5065644;28;20055;-80
2023/11/10 02:48:37;;;;;;;16.20;6.35;;;;;;;3.90;74.35;94182.78;5065654;28;20288;-81
2023/11/10 02:51:03;;;;;;;11.65;5.60;;;;;;;3.91;74.74;94179.88;5098990;28;20035;-80
2023/11/10 02:53:29;;;;;;;11.23;5.22;;;;;;;3.90;74.85;94185.41;5066765;28;20311;-80
2023/11/10 02:55:54;;;;;;;7.93;5.13;;;;;;;3.90;74.76;94185.41;5065455;28;20055;-80
2023/11/10 02:58:19;;;;;;;10.70;4.85;;;;;;;3.87;75.05;94178.03;5067031;28;20372;-80
2023/11/10 03:00:45;;;;;;;7.65;4.10;;;;;;;3.88;75.07;94174.34;5065770;28;20032;-80
2023/11/10 03:03:14;;;;;;;7.55;3.53;;;;;;;3.90;75.23;94191.47;5065496;28;20285;-80
2023/11/10 03:05:40;;;;;;;10.82;4.75;;;;;;;3.89;74.89;94194.38;5063938;28;20422;-80
2023/11/10 03:08:07;;;;;;;8.95;4.10;;;;;;;3.87;74.97;94178.03;5066035;28;20024;-80
2023/11/10 03:10:32;;;;;;;9.02;4.35;;;;;;;3.88;75.13;94179.63;5066213;28;20307;-80
2023/11/10 03:12:58;;;;;;;7.13;4.25;;;;;;;3.89;75.29;94189.09;5066306;28;20021;-78
2023/11/10 03:15:30;;;;;;;9.25;4.35;;;;;;;3.86;74.64;94181.72;5066258;28;20025;-77
2023/11/10 03:17:56;;;;;;;8.52;3.58;;;;;;;3.79;75.00;94180.13;5066258;28;20107;-78
2023/11/10 03:20:26;;;;;;;10.27;3.72;;;;;;;3.86;75.48;94173.81;5066298;28;20255;-78
2023/11/10 03:22:52;;;;;;;5.70;3.50;;;;;;;3.87;75.97;94170.09;5066233;28;20032;-79
2023/11/10 03:25:35;;;;;;;6.80;3.78;;;;;;;3.93;76.27;94176.97;5065940;28;20016;-79
2023/11/10 03:28:09;;;;;;;7.40;4.18;;;;;;;3.88;76.23;94176.97;5065046;28;20028;-79
2023/11/10 03:30:35;;;;;;;7.32;3.70;;;;;;;3.87;75.75;94170.09;5065957;28;20029;-79
2023/11/10 03:33:00;;;;;;;8.45;3.65;;;;;;;3.88;75.05;94167.22;5065868;28;20071;-79
2023/11/10 03:35:26;;;;;;;9.65;3.83;;;;;;;3.84;74.98;94163.53;5065996;28;20025;-79
2023/11/10 03:37:51;;;;;;;5.93;3.53;;;;;;;3.84;75.45;94162.75;5065802;28;20094;-79
2023/11/10 03:40:17;;;;;;;8.95;4.30;;;;;;;3.89;75.70;94152.19;5065572;28;20032;-79
2023/11/10 03:42:42;;;;;;;7.45;3.47;;;;;;;3.95;75.58;94140.59;5065796;28;20048;-78
2023/11/10 03:45:08;;;;;;;7.15;3.35;;;;;;;4.02;75.91;94156.94;5065608;28;20029;-78
2023/11/10 03:47:34;;;;;;;12.73;4.45;;;;;;;4.05;76.20;94140.59;5064578;28;20052;-78
2023/11/10 03:49:59;;;;;;;9.93;4.10;;;;;;;4.11;76.60;94134.25;5064532;28;20025;-78
2023/11/10 03:52:26;;;;;;;7.70;4.10;;;;;;;4.16;76.03;94133.47;5063773;28;20029;-79
2023/11/10 03:54:51;;;;;;;7.32;4.10;;;;;;;4.17;76.12;94143.75;5065399;28;20024;-79
2023/11/10 03:57:17;;;;;;;8.55;4.55;;;;;;;4.18;76.16;94129.50;5064258;28;20096;-79
2023/11/10 03:59:42;;;;;;;6.82;3.85;;;;;;;4.19;76.37;94133.72;5065372;28;20096;-78
2023/11/10 04:02:09;;;;;;;8.13;3.95;;;;;;;4.21;76.49;94130.78;5064248;28;20017;-78
2023/11/10 04:04:35;;;;;;;7.55;4.15;;;;;;;4.21;76.63;94122.88;5064236;28;20254;-78
2023/11/10 04:07:03;;;;;;;9.48;4.28;;;;;;;4.22;76.51;94120.00;5064117;28;20314;-78
2023/11/10 04:09:32;;;;;;;9.63;3.95;;;;;;;4.24;76.43;94116.31;5065415;28;20024;-78
2023/11/10 04:11:58;;;;;;;8.02;3.50;;;;;;;4.27;76.44;94131.59;5065163;28;20021;-78
2023/11/10 04:14:23;;;;;;;12.23;4.43;;;;;;;4.27;76.55;94119.19;5064880;28;20013;-78
2023/11/10 04:16:49;;;;;;;7.43;4.43;;;;;;;4.24;76.53;94111.03;5065024;28;20041;-78
2023/11/10 04:19:14;;;;;;;9.73;4.00;;;;;;;4.25;76.63;94104.69;5065117;28;20072;-78
2023/11/10 04:21:40;;;;;;;13.60;4.00;;;;;;;4.24;76.38;94111.03;5063559;28;20013;-78
2023/11/10 04:24:06;;;;;;;6.95;4.03;;;;;;;4.24;76.44;94122.38;5064980;28;20020;-78
2023/11/10 04:26:31;;;;;;;6.65;4.07;;;;;;;4.27;76.13;94123.66;5064960;28;20040;-78
2023/11/10 04:28:58;;;;;;;14.75;4.75;;;;;;;4.20;76.16;94122.09;5064890;28;20318;-78
2023/11/10 04:31:24;;;;;;;16.30;5.15;;;;;;;4.20;76.20;94116.81;5064541;28;20029;-78
2023/11/10 04:33:49;;;;;;;8.95;5.00;;;;;;;4.21;76.33;94122.88;5064865;28;20258;-79
2023/11/10 04:36:15;;;;;;;11.13;4.72;;;;;;;4.20;76.28;94122.09;5064600;28;20315;-79
2023/11/10 04:38:43;;;;;;;9.55;4.25;;;;;;;4.15;76.58;94111.56;5064460;28;20048;-79
2023/11/10 04:41:09;;;;;;;10.10;4.75;;;;;;;4.17;76.27;94112.09;5064552;28;20051;-79
2023/11/10 04:43:35;;;;;;;12.77;5.30;;;;;;;4.18;76.18;94108.38;5064560;28;20021;-79
2023/11/10 04:46:04;;;;;;;13.73;5.50;;;;;;;4.15;75.99;94105.47;5063568;28;20025;-79
2023/11/10 04:48:30;;;;;;;11.18;5.22;;;;;;;4.13;76.18;94104.97;5064677;28;20088;-80
2023/11/10 04:50:55;;;;;;;9.75;5.15;;;;;;;4.10;76.00;94113.41;5063100;28;20196;-79
2023/11/10 04:53:21;;;;;;;9.57;5.05;;;;;;;4.07;75.95;94112.09;5064380;28;20021;-80
2023/11/10 04:55:46;;;;;;;14.90;6.10;;;;;;;4.00;75.86;94101.03;5064332;28;20087;-81
2023/11/10 04:58:11;;;;;;;8.50;5.22;;;;;;;3.98;76.03;94103.91;5064437;28;20319;-80
2023/11/10 05:00:37;;;;;;;12.48;5.60;;;;;;;3.94;76.06;94102.09;5064574;28;20334;-80
2023/11/10 05:03:03;;;;;;;17.67;7.68;;;;;;;3.87;76.40;94102.34;5063376;28;20024;-79
2023/11/10 05:05:29;;;;;;;16.42;6.65;;;;;;;3.78;76.32;94094.16;5064285;28;20063;-79
2023/11/10 05:07:54;;;;;;;11.52;5.97;;;;;;;3.78;76.43;94098.66;5064275;28;20091;-79
2023/11/10 05:10:20;;;;;;;14.52;6.15;;;;;;;3.73;76.49;94104.72;5064435;28;20024;-79
2023/11/10 05:12:45;;;;;;;16.15;6.15;;;;;;;3.72;76.76;94097.88;5064102;28;20345;-78
2023/11/10 05:15:13;;;;;;;10.93;6.13;;;;;;;3.75;76.84;94107.09;5064334;28;20322;-79
2023/11/10 05:17:40;;;;;;;18.20;6.80;;;;;;;3.68;76.33;94112.63;5062741;28;20048;-79
2023/11/10 05:20:07;;;;;;;20.00;7.55;;;;;;;3.67;77.33;94113.69;5064013;28;20048;-78
2023/11/10 05:22:33;;;;;;;17.00;6.13;;;;;;;3.69;77.13;94106.31;5064022;28;20196;-78
2023/11/10 05:25:02;;;;;;;22.48;7.45;;;;;;;3.68;77.17;94110.00;5064041;28;20043;-78
2023/11/10 05:27:28;;;;;;;13.50;7.20;;;;;;;3.73;77.08;94112.63;5064169;28;20315;-78
2023/11/10 05:29:53;;;;;;;16.77;6.20;;;;;;;3.72;77.31;94108.41;5062563;28;20024;-78
2023/11/10 05:32:19;;;;;;;11.60;5.05;;;;;;;3.73;77.29;94112.63;5062389;28;20075;-78
2023/11/10 05:34:45;;;;;;;14.43;6.78;;;;;;;3.77;77.17;94103.16;5063719;28;20027;-78
2023/11/10 05:37:10;;;;;;;15.43;6.93;;;;;;;3.84;76.89;94112.63;5063628;28;20311;-78
2023/11/10 05:39:39;;;;;;;15.70;8.43;;;;;;;3.90;76.97;94122.13;5063657;28;20088;-77
2023/11/10 05:42:05;;;;;;;16.38;7.40;;;;;;;3.92;77.17;94110.25;5063464;28;20013;-78
2023/11/10 05:44:31;;;;;;;17.50;7.60;;;;;;;3.93;77.16;94117.13;5063483;28;20059;-78
2023/11/10 05:46:57;;;;;;;21.20;7.93;;;;;;;3.99;77.06;94118.69;5063236;28;20230;-78
2023/11/10 05:49:22;;;;;;;22.80;7.90;;;;;;;4.07;77.10;94112.09;5063283;28;20071;-79
2023/11/10 05:51:48;;;;;;;17.08;8.27;;;;;;;4.13;76.95;94105.78;5062806;28;20028;-78
2023/11/10 05:54:15;;;;;;;20.70;9.77;;;;;;;4.20;77.19;94111.53;5062899;28;20206;-79
2023/11/10 05:56:40;;;;;;;34.75;9.75;;;;;;;4.26;77.35;94114.19;5061874;28;20101;-81
2023/11/10 05:59:06;;;;;;;26.88;9.40;;;;;;;4.33;77.35;94104.13;5062932;28;20402;-79
2023/11/10 06:01:31;;;;;;;19.92;8.40;;;;;;;4.34;77.52;94103.09;5063342;28;20021;-80
2023/11/10 06:03:57;;;;;;;22.33;8.60;;;;;;;4.42;77.46;94119.16;5063124;28;20021;-79
2023/11/10 06:06:24;;;;;;;22.77;8.68;;;;;;;4.51;77.20;94122.03;5063368;28;20036;-82
2023/11/10 06:08:50;;;;;;;17.65;7.82;;;;;;;4.61;77.08;94103.53;5063002;28;20032;-83
2023/11/10 06:11:20;;;;;;;14.88;7.50;;;;;;;4.72;76.60;94101.66;5061724;28;20039;-81
2023/11/10 06:13:47;;;;;;;24.10;8.55;;;;;;;4.83;76.56;94123.53;5062818;28;20021;-81
2023/11/10 06:16:13;;;;;;;16.30;7.25;;;;;;;4.89;75.84;94117.16;5062607;28;20095;-81
2023/11/10 06:18:39;;;;;;;14.43;7.00;;;;;;;4.92;75.48;94108.69;5062776;28;20017;-77
2023/11/10 06:21:04;;;;;;;14.85;7.70;;;;;;;4.99;76.19;94117.13;5062713;28;20024;-78
2023/11/10 06:23:30;;;;;;;16.65;5.53;;;;;;;5.01;74.87;94116.84;5062826;28;20223;-79
2023/11/10 06:25:55;;;;;;;9.82;5.13;;;;;;;5.06;75.00;94110.75;5062499;28;20025;-83
2023/11/10 06:28:21;;;;;;;14.30;5.88;;;;;;;5.16;74.57;94116.75;5062767;28;20215;-77
2023/11/10 06:30:46;;;;;;;16.50;5.40;;;;;;;5.29;73.58;94110.09;5062278;28;20017;-77
2023/11/10 06:33:11;;;;;;;17.08;5.50;;;;;;;5.38;73.08;94113.75;5062460;28;20017;-77
2023/11/10 06:35:37;;;;;;;12.40;5.47;;;;;;;5.49;72.91;94118.97;5062420;28;20111;-77
2023/11/10 06:38:02;;;;;;;10.40;4.57;;;;;;;5.56;72.70;94116.81;5062374;28;20024;-77
2023/11/10 06:40:28;;;;;;;11.15;4.68;;;;;;;5.62;72.68;94107.78;5062741;28;20104;-77
2023/11/10 06:42:54;;;;;;;12.65;5.43;;;;;;;5.73;71.80;94098.69;5062547;28;20080;-77
2023/11/10 06:45:19;;;;;;;36.75;6.60;;;;;;;5.77;72.89;94099.72;5062335;28;20020;-74
2023/11/10 06:47:44;;;;;;;15.32;6.50;;;;;;;5.85;72.14;94095.69;5061085;28;20028;-74
2023/11/10 06:50:13;;;;;;;13.25;5.60;;;;;;;5.89;71.66;94106.53;5062203;28;20020;-77
2023/11/10 06:52:38;;;;;;;23.02;6.25;;;;;;;5.91;71.80;94099.88;5062093;28;20067;-77
2023/11/10 06:55:04;;;;;;;18.17;5.72;;;;;;;5.98;70.96;94096.94;5062247;28;20223;-77
2023/11/10 06:57:30;;;;;;;15.30;5.90;;;;;;;6.08;70.97;94094.19;5062408;28;20029;-77
2023/11/10 06:59:55;;;;;;;16.38;5.60;;;;;;;6.21;70.90;94082.97;5062391;28;20040;-77
2023/11/10 07:02:23;;;;;;;12.40;5.07;;;;;;;6.28;70.44;94073.91;5062000;28;20025;-77
2023/11/10 07:04:48;;;;;;;11.38;5.20;;;;;;;6.31;69.81;94073.34;5060949;28;20021;-76
2023/11/10 07:07:13;;;;;;;16.85;6.95;;;;;;;6.35;69.94;94080.47;5062245;28;20020;-76
2023/11/10 07:09:39;;;;;;;15.65;5.43;;;;;;;6.36;69.80;94071.44;5062126;28;20024;-78
2023/11/10 07:12:06;;;;;;;15.93;6.90;;;;;;;6.34;70.72;94060.34;5060669;28;20022;-77
2023/11/10 07:14:32;;;;;;;21.13;6.28;;;;;;;6.35;70.95;94064.56;5062298;28;20028;-77
2023/11/10 07:16:57;;;;;;;20.10;6.20;;;;;;;6.35;70.54;94075.16;5062421;28;20056;-77
2023/11/10 07:19:25;;;;;;;18.70;6.63;;;;;;;6.33;69.79;94065.91;5061983;28;20311;-77
2023/11/10 07:21:50;;;;;;;11.55;5.85;;;;;;;6.37;70.51;94077.50;5062160;28;20059;-77
2023/11/10 07:24:15;;;;;;;22.85;7.18;;;;;;;6.40;70.67;94069.81;5062019;28;20304;-77
2023/11/10 07:26:41;;;;;;;16.67;6.18;;;;;;;6.47;70.41;94058.88;5063206;28;20250;-77
2023/11/10 07:29:07;;;;;;;21.35;6.30;;;;;;;6.49;69.87;94062.03;5065794;28;20025;-77
2023/11/10 07:31:32;;;;;;;17.95;6.28;;;;;;;6.53;69.86;94047.16;5065853;28;20067;-78
2023/11/10 07:33:58;;;;;;;14.23;6.32;;;;;;;6.60;69.36;94054.78;5065940;28;20032;-78
2023/11/10 07:36:23;;;;;;;15.07;6.05;;;;;;;6.66;69.81;94050.22;5065641;28;20353;-77
2023/11/10 07:38:49;;;;;;;21.52;6.22;;;;;;;6.70;69.37;94045.91;5065390;28;20020;-78
2023/11/10 07:41:15;;;;;;;16.58;6.30;;;;;;;6.70;69.11;94046.69;5065769;28;20028;-78
2023/11/10 07:43:41;;;;;;;26.83;7.03;;;;;;;6.69;69.35;94049.63;5066509;28;20021;-83
2023/11/10 07:46:06;;;;;;;20.85;6.57;;;;;;;6.66;69.63;94058.16;5066746;28;20025;-83
2023/11/10 07:48:33;;;;;;;22.10;6.55;;;;;;;6.70;69.93;94070.53;5065844;28;20051;-84
2023/11/10 07:50:58;;;;;;;25.23;6.93;;;;;;;6.73;69.79;94062.00;5065965;28;20036;-82
2023/11/10 07:53:26;;;;;;;19.17;7.32;;;;;;;6.77;69.94;94046.34;5064769;28;20071;-82
2023/11/10 07:55:52;;;;;;;24.35;8.35;;;;;;;6.80;70.32;94043.94;5065595;28;20028;-84
2023/11/10 07:58:17;;;;;;;25.80;7.47;;;;;;;6.82;69.78;94048.94;5097884;28;20029;-84
2023/11/10 08:00:42;;;;;;;18.35;6.65;;;;;;;6.92;69.29;94048.81;5065645;28;20040;-82
2023/11/10 08:03:08;;;;;;;13.35;6.18;;;;;;;6.96;69.02;94049.81;5065712;28;20045;-83
2023/11/10 08:05:33;;;;;;;18.08;6.22;;;;;;;7.09;69.13;94052.84;5064949;28;20326;-83
2023/11/10 08:08:02;;;;;;;20.13;6.85;;;;;;;7.18;68.94;94048.47;5065844;28;20032;-84
2023/11/10 08:10:30;;;;;;;21.40;6.03;;;;;;;7.25;68.50;94046.25;5065361;28;20092;-83
2023/11/10 08:12:55;;;;;;;15.40;6.55;;;;;;;7.29;68.66;94054.44;5063917;28;20099;-83
2023/11/10 08:15:21;;;;;;;16.75;6.68;;;;;;;7.32;69.47;94056.50;5064905;28;20013;-84
2023/11/10 08:17:47;;;;;;;15.05;6.68;;;;;;;7.29;68.34;94052.56;5064953;28;20116;-84
2023/11/10 08:20:13;;;;;;;14.65;6.30;;;;;;;7.41;68.18;94044.16;5063921;28;20023;-84
2023/11/10 08:22:38;;;;;;;22.63;6.25;;;;;;;7.56;68.07;94024.56;5064710;28;20148;-84
2023/11/10 08:25:05;;;;;;;21.40;8.75;;;;;;;7.69;68.28;94034.44;5063737;28;20017;-83
2023/11/10 08:27:32;;;;;;;16.05;7.13;;;;;;;7.88;67.34;94028.31;5065394;28;20020;-83
2023/11/10 08:29:58;;;;;;;13.90;7.03;;;;;;;7.99;66.23;94040.31;5065397;28;20031;-84
2023/11/10 08:32:24;;;;;;;22.73;7.05;;;;;;;8.04;66.48;94019.00;5065024;28;20048;-85
2023/11/10 08:34:49;;;;;;;18.88;7.25;;;;;;;8.18;66.42;94014.50;5064078;28;20032;-86
2023/11/10 08:37:15;;;;;;;14.93;6.80;;;;;;;8.31;66.08;94022.78;5063524;28;20060;-85
2023/11/10 08:39:40;;;;;;;14.32;6.05;;;;;;;8.48;65.38;94020.34;5064766;28;20048;-83
2023/11/10 08:42:06;;;;;;;12.13;6.57;;;;;;;8.61;64.93;94014.25;5065036;28;20365;-85
2023/11/10 08:44:31;;;;;;;9.18;6.03;;;;;;;8.74;63.71;94017.19;5065281;28;20017;-85
2023/11/10 08:46:56;;;;;;;21.05;5.68;;;;;;;8.88;64.08;94019.84;5065119;28;20092;-85
2023/11/10 08:49:22;;;;;;;15.80;6.55;;;;;;;9.01;64.19;94019.78;5063964;28;20049;-83
2023/11/10 08:51:48;;;;;;;14.40;6.93;;;;;;;9.09;63.47;94009.53;5065231;28;20017;-85
2023/11/10 08:54:15;;;;;;;17.08;6.68;;;;;;;9.24;62.89;94017.19;5064107;28;20029;-85
2023/11/10 08:56:40;;;;;;;15.15;6.95;;;;;;;9.32;62.52;94023.66;5065353;28;20035;-85
2023/11/10 08:59:06;;;;;;;19.67;7.72;;;;;;;9.37;61.94;94005.69;5064932;28;20238;-85
2023/11/10 09:01:32;;;;;;;15.02;7.03;;;;;;;9.44;62.48;94006.09;5097745;28;20337;-86
2023/11/10 09:03:58;;;;;;;13.02;7.07;;;;;;;9.59;61.72;94002.28;5065383;28;20044;-85
2023/11/10 09:06:24;;;;;;;17.58;6.93;;;;;;;9.58;61.18;94002.56;5065940;28;20043;-85
2023/11/10 09:08:50;;;;;;;15.70;6.43;;;;;;;9.58;59.81;94005.22;5098501;28;20021;-85
2023/11/10 09:11:15;;;;;;;17.83;6.50;;;;;;;9.62;60.28;93992.88;5066005;28;20350;-85
2023/11/10 09:13:41;;;;;;;12.40;6.72;;;;;;;9.70;60.70;93986.84;5097954;28;20025;-85
2023/11/10 09:16:07;;;;;;;22.65;6.53;;;;;;;9.83;60.63;93985.19;5066521;28;20258;-85
2023/11/10 09:18:32;;;;;;;16.15;6.47;;;;;;;10.03;60.93;93989.22;5067873;28;20016;-83
2023/11/10 09:20:58;;;;;;;11.65;5.95;;;;;;;10.16;59.23;93983.00;5067701;28;20017;-84
2023/11/10 09:23:29;;;;;;;13.05;6.60;;;;;;;10.19;58.29;93982.38;5066171;28;20079;-84
2023/11/10 09:25:56;;;;;;;14.63;6.40;;;;;;;10.23;58.49;93962.03;5063527;28;20032;-85
2023/11/10 09:28:24;;;;;;;10.80;6.32;;;;;;;10.28;58.68;93963.78;5064389;28;20044;-85
2023/11/10 09:30:51;;;;;;;12.15;6.70;;;;;;;10.38;59.19;93962.75;5065252;28;20025;-85
2023/11/10 09:33:16;;;;;;;16.48;7.07;;;;;;;10.48;58.03;93967.00;5100853;28;20029;-83
2023/11/10 09:35:41;;;;;;;18.65;7.38;;;;;;;10.46;58.03;93974.53;5067268;28;20017;-84
2023/11/10 09:38:07;;;;;;;14.55;6.30;;;;;;;10.39;58.48;93949.13;5069766;28;20017;-85
2023/11/10 09:40:32;;;;;;;12.10;5.97;;;;;;;10.36;58.69;93959.59;5070126;28;20017;-84
2023/11/10 09:42:59;;;;;;;14.80;7.32;;;;;;;10.40;58.97;93952.56;5065793;28;20087;-85
2023/11/10 09:45:26;;;;;;;14.02;7.40;;;;;;;10.40;59.01;93945.38;5066285;28;20020;-85
2023/11/10 09:47:54;;;;;;;15.68;7.78;;;;;;;10.45;59.40;93939.09;5066166;28;20022;-85
2023/11/10 09:50:22;;;;;;;15.10;7.53;;;;;;;10.53;59.43;93938.34;5101332;28;20053;-86
2023/11/10 09:52:51;;;;;;;16.58;6.90;;;;;;;10.65;59.36;93937.75;5067090;28;20036;-84
2023/11/10 09:55:17;;;;;;;16.25;7.05;;;;;;;10.68;58.44;93910.44;5066652;28;20029;-85
2023/11/10 09:57:43;;;;;;;19.20;6.70;;;;;;;10.69;58.30;93930.69;5102008;28;20100;-84
2023/11/10 10:00:13;;;;;;;13.27;7.05;;;;;;;10.71;58.44;93920.50;5067899;28;20104;-83
2023/11/10 10:02:39;;;;;;;14.43;7.10;;;;;;;10.76;58.14;93920.34;5066725;28;20020;-83
2023/11/10 10:05:08;;;;;;;11.80;5.68;;;;;;;10.75;58.17;93910.00;5064851;28;20162;-83
2023/11/10 10:07:33;;;;;;;13.48;6.47;;;;;;;10.74;57.98;93905.75;5063994;28;20056;-80
2023/11/10 10:10:01;;;;;;;12.95;6.88;;;;;;;10.78;57.70;93894.16;5062654;28;20021;-87
2023/11/10 10:12:28;;;;;;;11.35;5.50;;;;;;;10.87;58.20;93894.16;5062845;28;20096;-85
2023/11/10 10:14:55;;;;;;;16.50;7.38;;;;;;;11.01;58.29;93900.13;5093144;28;20029;-90
2023/11/10 10:17:36;;;;;;;23.00;6.88;;;;;;;11.14;57.42;93873.59;5063442;28;20044;-91
2023/11/10 10:20:09;;;;;;;16.77;6.60;;;;;;;11.25;57.73;93861.50;5062851;28;20042;-91
2023/11/10 10:22:36;;;;;;;19.20;6.32;;;;;;;11.35;57.80;93863.06;5062521;28;20047;-91
2023/11/10 10:25:01;;;;;;;9.07;5.95;;;;;;;11.50;57.00;93865.22;5095169;28;20025;-91
2023/11/10 10:27:27;;;;;;;14.63;6.60;;;;;;;11.62;56.52;93849.34;5063381;28;20088;-91
2023/11/10 10:29:52;;;;;;;19.25;6.45;;;;;;;11.77;56.40;93840.00;5063910;28;20032;-91
2023/11/10 10:32:19;;;;;;;13.23;5.93;;;;;;;11.95;55.60;93830.06;5062430;28;20017;-91
2023/11/10 10:34:44;;;;;;;7.80;4.93;;;;;;;12.11;54.94;93826.81;5061494;28;20060;-92
2023/11/10 10:37:10;;;;;;;9.40;4.70;;;;;;;12.21;54.18;93831.78;5060810;28;20040;-91
2023/11/10 10:39:36;;;;;;;34.45;6.43;;;;;;;12.38;54.10;93804.19;5062107;28;20028;-91
2023/11/10 10:42:04;;;;;;;9.63;4.43;;;;;;;12.54;54.07;93817.78;5062051;28;20017;-91
2023/11/10 10:44:30;;;;;;;13.18;5.00;;;;;;;12.59;52.22;93815.66;5061680;28;20028;-91
2023/11/10 10:46:56;;;;;;;7.32;4.38;;;;;;;12.67;51.93;93811.38;5062772;28;20025;-91
2023/11/10 10:49:23;;;;;;;16.33;4.50;;;;;;;12.77;52.37;93788.78;5096898;28;20289;-92
2023/11/10 10:51:50;;;;;;;13.95;4.95;;;;;;;12.86;52.32;93797.50;5064241;28;20017;-91
2023/11/10 10:54:20;;;;;;;8.45;4.40;;;;;;;12.99;52.06;93796.47;5063407;28;20029;-92
2023/11/10 10:56:47;;;;;;;8.52;4.32;;;;;;;13.05;51.19;93789.78;5063894;28;20028;-92
2023/11/10 10:59:13;;;;;;;9.90;4.38;;;;;;;13.12;52.04;93786.56;5062997;28;20067;-91
2023/11/10 11:01:40;;;;;;;13.32;4.75;;;;;;;13.19;50.79;93791.41;5065205;28;20028;-92
2023/11/10 11:04:20;;;;;;;6.80;4.15;;;;;;;13.25;51.21;93798.09;5067827;28;20021;-91
2023/11/10 11:07:21;;;;;;;10.82;4.30;;;;;;;13.42;50.83;93787.22;5100692;28;20024;-89
2023/11/10 11:10:16;;;;;;;12.25;4.40;;;;;;;13.53;51.17;93776.09;5069703;28;20027;-89
2023/11/10 11:12:57;;;;;;;10.57;4.85;;;;;;;13.59;49.20;93785.47;5065646;28;20041;-91
2023/11/10 11:15:56;;;;;;;10.97;4.20;;;;;;;13.69;49.25;93789.59;5069426;28;20040;-90
2023/11/10 11:19:01;;;;;;;13.95;5.00;;;;;;;13.82;49.32;93773.22;5068843;28;20033;-90
2023/11/10 11:21:27;;;;;;;7.05;3.80;;;;;;;14.09;49.85;93767.50;5104470;28;20045;-89
2023/11/10 11:23:52;;;;;;;11.05;4.15;;;;;;;14.27;49.95;93765.34;5067770;28;20037;-90
2023/11/10 11:26:19;;;;;;;10.85;4.80;;;;;;;14.50;48.42;93768.31;5068883;28;20025;-91
2023/11/10 11:28:44;;;;;;;8.82;4.50;;;;;;;14.56;47.43;93765.09;5067603;28;20204;-91
2023/11/10 11:31:12;;;;;;;12.15;6.72;;;;;;;14.72;47.30;93759.78;5066638;28;20107;-91